sensor_id;sensor_type;location;lat;lon;timestamp;P1;durP1;ratioP1;P2;durP2;ratioP2
17915;SDS011;9083;49.156;8.982;2023-06-14T00:00:49;4.07;;;3.53;;
17915;SDS011;9083;49.156;8.982;2023-06-14T00:03:17;11.20;;;4.03;;
17915;SDS011;9083;49.156;8.982;2023-06-14T00:05:47;3.67;;;3.37;;
17915;SDS011;9083;49.156;8.982;2023-06-14T00:08:13;4.83;;;3.27;;
17915;SDS011;9083;49.156;8.982;2023-06-14T00:10:40;7.50;;;3.67;;
17915;SDS011;9083;49.156;8.982;2023-06-14T00:13:07;5.50;;;3.77;;
17915;SDS011;9083;49.156;8.982;2023-06-14T00:15:35;5.57;;;3.50;;
17915;SDS011;9083;49.156;8.982;2023-06-14T00:18:01;7.87;;;3.70;;
17915;SDS011;9083;49.156;8.982;2023-06-14T00:20:27;6.07;;;3.77;;
17915;SDS011;9083;49.156;8.982;2023-06-14T00:22:54;3.70;;;3.40;;
17915;SDS011;9083;49.156;8.982;2023-06-14T00:25:21;3.83;;;3.50;;
17915;SDS011;9083;49.156;8.982;2023-06-14T00:27:48;7.73;;;4.33;;
17915;SDS011;9083;49.156;8.982;2023-06-14T00:30:14;4.77;;;3.57;;
17915;SDS011;9083;49.156;8.982;2023-06-14T00:32:42;4.87;;;3.90;;
17915;SDS011;9083;49.156;8.982;2023-06-14T00:35:09;4.37;;;3.50;;
17915;SDS011;9083;49.156;8.982;2023-06-14T00:37:35;9.00;;;3.90;;
17915;SDS011;9083;49.156;8.982;2023-06-14T00:40:02;4.50;;;3.47;;
17915;SDS011;9083;49.156;8.982;2023-06-14T00:42:29;4.83;;;3.60;;
17915;SDS011;9083;49.156;8.982;2023-06-14T00:44:55;5.73;;;3.90;;
17915;SDS011;9083;49.156;8.982;2023-06-14T00:47:22;6.60;;;3.97;;
17915;SDS011;9083;49.156;8.982;2023-06-14T00:49:50;4.13;;;3.73;;
17915;SDS011;9083;49.156;8.982;2023-06-14T00:52:17;5.23;;;3.87;;
17915;SDS011;9083;49.156;8.982;2023-06-14T00:54:43;6.63;;;4.23;;
17915;SDS011;9083;49.156;8.982;2023-06-14T00:57:10;6.07;;;3.57;;
17915;SDS011;9083;49.156;8.982;2023-06-14T00:59:38;3.47;;;3.17;;
17915;SDS011;9083;49.156;8.982;2023-06-14T01:02:07;6.50;;;3.90;;
17915;SDS011;9083;49.156;8.982;2023-06-14T01:04:34;4.23;;;3.60;;
17915;SDS011;9083;49.156;8.982;2023-06-14T01:07:02;4.20;;;3.80;;
17915;SDS011;9083;49.156;8.982;2023-06-14T01:09:37;5.97;;;3.93;;
17915;SDS011;9083;49.156;8.982;2023-06-14T01:12:09;5.43;;;3.67;;
17915;SDS011;9083;49.156;8.982;2023-06-14T01:14:37;4.90;;;4.00;;
17915;SDS011;9083;49.156;8.982;2023-06-14T01:17:04;6.07;;;4.10;;
17915;SDS011;9083;49.156;8.982;2023-06-14T01:19:31;4.77;;;4.10;;
17915;SDS011;9083;49.156;8.982;2023-06-14T01:21:59;16.43;;;4.20;;
17915;SDS011;9083;49.156;8.982;2023-06-14T01:24:27;4.40;;;3.80;;
17915;SDS011;9083;49.156;8.982;2023-06-14T01:26:57;4.50;;;4.10;;
17915;SDS011;9083;49.156;8.982;2023-06-14T01:29:23;4.63;;;4.10;;
17915;SDS011;9083;49.156;8.982;2023-06-14T01:31:52;8.03;;;4.10;;
17915;SDS011;9083;49.156;8.982;2023-06-14T01:34:19;4.30;;;3.90;;
17915;SDS011;9083;49.156;8.982;2023-06-14T01:36:45;9.00;;;4.30;;
17915;SDS011;9083;49.156;8.982;2023-06-14T01:39:13;5.40;;;4.20;;
17915;SDS011;9083;49.156;8.982;2023-06-14T01:41:41;4.30;;;3.70;;
17915;SDS011;9083;49.156;8.982;2023-06-14T01:44:08;4.47;;;3.87;;
17915;SDS011;9083;49.156;8.982;2023-06-14T01:46:35;8.60;;;3.83;;
17915;SDS011;9083;49.156;8.982;2023-06-14T01:49:02;5.47;;;3.90;;
17915;SDS011;9083;49.156;8.982;2023-06-14T01:51:28;5.50;;;4.17;;
17915;SDS011;9083;49.156;8.982;2023-06-14T01:53:55;6.47;;;4.33;;
17915;SDS011;9083;49.156;8.982;2023-06-14T01:56:22;7.57;;;4.40;;
17915;SDS011;9083;49.156;8.982;2023-06-14T01:58:50;7.87;;;4.57;;
17915;SDS011;9083;49.156;8.982;2023-06-14T02:01:16;5.00;;;4.03;;
17915;SDS011;9083;49.156;8.982;2023-06-14T02:03:44;8.47;;;4.47;;
17915;SDS011;9083;49.156;8.982;2023-06-14T02:06:11;10.30;;;4.10;;
17915;SDS011;9083;49.156;8.982;2023-06-14T02:08:37;6.73;;;4.17;;
17915;SDS011;9083;49.156;8.982;2023-06-14T02:11:04;10.97;;;4.23;;
17915;SDS011;9083;49.156;8.982;2023-06-14T02:13:30;6.63;;;3.73;;
17915;SDS011;9083;49.156;8.982;2023-06-14T02:15:58;3.90;;;3.60;;
17915;SDS011;9083;49.156;8.982;2023-06-14T02:18:24;4.63;;;4.23;;
17915;SDS011;9083;49.156;8.982;2023-06-14T02:20:51;5.83;;;3.63;;
17915;SDS011;9083;49.156;8.982;2023-06-14T02:23:17;4.40;;;3.73;;
17915;SDS011;9083;49.156;8.982;2023-06-14T02:25:43;5.23;;;4.70;;
17915;SDS011;9083;49.156;8.982;2023-06-14T02:28:11;6.57;;;4.00;;
17915;SDS011;9083;49.156;8.982;2023-06-14T02:30:37;4.33;;;3.93;;
17915;SDS011;9083;49.156;8.982;2023-06-14T02:33:05;4.30;;;3.90;;
17915;SDS011;9083;49.156;8.982;2023-06-14T02:35:31;5.87;;;4.07;;
17915;SDS011;9083;49.156;8.982;2023-06-14T02:37:58;4.43;;;4.00;;
17915;SDS011;9083;49.156;8.982;2023-06-14T02:40:24;6.17;;;3.97;;
17915;SDS011;9083;49.156;8.982;2023-06-14T02:42:50;7.07;;;4.07;;
17915;SDS011;9083;49.156;8.982;2023-06-14T02:45:17;8.23;;;4.20;;
17915;SDS011;9083;49.156;8.982;2023-06-14T02:47:43;6.00;;;3.93;;
17915;SDS011;9083;49.156;8.982;2023-06-14T02:50:10;5.03;;;4.03;;
17915;SDS011;9083;49.156;8.982;2023-06-14T02:52:37;4.13;;;3.73;;
17915;SDS011;9083;49.156;8.982;2023-06-14T02:55:03;5.67;;;4.00;;
17915;SDS011;9083;49.156;8.982;2023-06-14T02:57:31;3.90;;;3.60;;
17915;SDS011;9083;49.156;8.982;2023-06-14T02:59:57;4.50;;;4.10;;
17915;SDS011;9083;49.156;8.982;2023-06-14T03:02:23;4.73;;;4.23;;
17915;SDS011;9083;49.156;8.982;2023-06-14T03:04:50;4.10;;;3.60;;
17915;SDS011;9083;49.156;8.982;2023-06-14T03:07:17;5.10;;;3.73;;
17915;SDS011;9083;49.156;8.982;2023-06-14T03:09:44;6.80;;;4.20;;
17915;SDS011;9083;49.156;8.982;2023-06-14T03:12:12;4.60;;;4.20;;
17915;SDS011;9083;49.156;8.982;2023-06-14T03:14:38;4.07;;;3.77;;
17915;SDS011;9083;49.156;8.982;2023-06-14T03:17:04;4.80;;;4.00;;
17915;SDS011;9083;49.156;8.982;2023-06-14T03:19:33;4.70;;;3.90;;
17915;SDS011;9083;49.156;8.982;2023-06-14T03:21:59;5.23;;;4.07;;
17915;SDS011;9083;49.156;8.982;2023-06-14T03:24:27;4.73;;;4.30;;
17915;SDS011;9083;49.156;8.982;2023-06-14T03:26:53;4.53;;;4.10;;
17915;SDS011;9083;49.156;8.982;2023-06-14T03:29:20;4.87;;;3.77;;
17915;SDS011;9083;49.156;8.982;2023-06-14T03:31:59;4.80;;;4.03;;
17915;SDS011;9083;49.156;8.982;2023-06-14T03:34:25;7.80;;;4.60;;
17915;SDS011;9083;49.156;8.982;2023-06-14T03:36:52;7.70;;;3.80;;
17915;SDS011;9083;49.156;8.982;2023-06-14T03:39:18;7.93;;;4.57;;
17915;SDS011;9083;49.156;8.982;2023-06-14T03:41:46;7.37;;;4.67;;
17915;SDS011;9083;49.156;8.982;2023-06-14T03:44:13;4.33;;;3.93;;
17915;SDS011;9083;49.156;8.982;2023-06-14T03:46:40;6.67;;;4.50;;
17915;SDS011;9083;49.156;8.982;2023-06-14T03:49:06;10.40;;;4.57;;
17915;SDS011;9083;49.156;8.982;2023-06-14T03:51:32;7.43;;;4.40;;
17915;SDS011;9083;49.156;8.982;2023-06-14T03:53:59;10.33;;;4.00;;
17915;SDS011;9083;49.156;8.982;2023-06-14T03:56:26;6.43;;;3.97;;
17915;SDS011;9083;49.156;8.982;2023-06-14T03:58:54;5.13;;;4.63;;
17915;SDS011;9083;49.156;8.982;2023-06-14T04:01:21;9.73;;;4.63;;
17915;SDS011;9083;49.156;8.982;2023-06-14T04:03:50;7.73;;;4.60;;
17915;SDS011;9083;49.156;8.982;2023-06-14T04:06:16;5.13;;;4.73;;
17915;SDS011;9083;49.156;8.982;2023-06-14T04:08:44;6.80;;;4.50;;
17915;SDS011;9083;49.156;8.982;2023-06-14T04:11:10;7.37;;;4.57;;
17915;SDS011;9083;49.156;8.982;2023-06-14T04:13:36;5.43;;;4.00;;
17915;SDS011;9083;49.156;8.982;2023-06-14T04:16:05;5.13;;;4.23;;
17915;SDS011;9083;49.156;8.982;2023-06-14T04:18:32;8.03;;;4.37;;
17915;SDS011;9083;49.156;8.982;2023-06-14T04:20:58;4.10;;;3.70;;
17915;SDS011;9083;49.156;8.982;2023-06-14T04:23:25;5.63;;;4.20;;
17915;SDS011;9083;49.156;8.982;2023-06-14T04:25:53;5.77;;;4.20;;
17915;SDS011;9083;49.156;8.982;2023-06-14T04:28:19;6.27;;;4.67;;
17915;SDS011;9083;49.156;8.982;2023-06-14T04:30:50;5.73;;;4.33;;
17915;SDS011;9083;49.156;8.982;2023-06-14T04:33:20;9.60;;;4.83;;
17915;SDS011;9083;49.156;8.982;2023-06-14T04:35:46;5.37;;;4.50;;
17915;SDS011;9083;49.156;8.982;2023-06-14T04:38:13;4.67;;;3.97;;
17915;SDS011;9083;49.156;8.982;2023-06-14T04:40:41;8.77;;;4.33;;
17915;SDS011;9083;49.156;8.982;2023-06-14T04:43:09;5.87;;;4.67;;
17915;SDS011;9083;49.156;8.982;2023-06-14T04:45:37;8.53;;;4.47;;
17915;SDS011;9083;49.156;8.982;2023-06-14T04:48:05;5.03;;;4.50;;
17915;SDS011;9083;49.156;8.982;2023-06-14T04:50:33;8.50;;;4.07;;
17915;SDS011;9083;49.156;8.982;2023-06-14T04:53:00;9.27;;;4.50;;
17915;SDS011;9083;49.156;8.982;2023-06-14T04:55:26;6.33;;;4.47;;
17915;SDS011;9083;49.156;8.982;2023-06-14T04:57:52;6.60;;;4.70;;
17915;SDS011;9083;49.156;8.982;2023-06-14T05:00:19;6.33;;;4.37;;
17915;SDS011;9083;49.156;8.982;2023-06-14T05:02:46;6.07;;;4.50;;
17915;SDS011;9083;49.156;8.982;2023-06-14T05:05:14;10.00;;;4.63;;
17915;SDS011;9083;49.156;8.982;2023-06-14T05:07:42;13.33;;;5.00;;
17915;SDS011;9083;49.156;8.982;2023-06-14T05:10:08;7.80;;;4.87;;
17915;SDS011;9083;49.156;8.982;2023-06-14T05:12:34;7.47;;;4.33;;
17915;SDS011;9083;49.156;8.982;2023-06-14T05:15:01;9.60;;;4.90;;
17915;SDS011;9083;49.156;8.982;2023-06-14T05:17:28;5.23;;;4.53;;
17915;SDS011;9083;49.156;8.982;2023-06-14T05:19:54;6.83;;;4.77;;
17915;SDS011;9083;49.156;8.982;2023-06-14T05:22:20;8.33;;;4.83;;
17915;SDS011;9083;49.156;8.982;2023-06-14T05:24:48;8.57;;;4.60;;
17915;SDS011;9083;49.156;8.982;2023-06-14T05:27:16;7.53;;;4.43;;
17915;SDS011;9083;49.156;8.982;2023-06-14T05:29:42;4.63;;;4.00;;
17915;SDS011;9083;49.156;8.982;2023-06-14T05:32:08;5.20;;;4.70;;
17915;SDS011;9083;49.156;8.982;2023-06-14T05:34:34;6.57;;;4.27;;
17915;SDS011;9083;49.156;8.982;2023-06-14T05:37:01;9.63;;;4.77;;
17915;SDS011;9083;49.156;8.982;2023-06-14T05:39:28;4.70;;;4.30;;
17915;SDS011;9083;49.156;8.982;2023-06-14T05:41:56;6.40;;;4.70;;
17915;SDS011;9083;49.156;8.982;2023-06-14T05:44:23;8.10;;;4.53;;
17915;SDS011;9083;49.156;8.982;2023-06-14T05:46:49;4.73;;;4.33;;
17915;SDS011;9083;49.156;8.982;2023-06-14T05:49:15;5.83;;;4.47;;
17915;SDS011;9083;49.156;8.982;2023-06-14T05:51:42;7.07;;;4.80;;
17915;SDS011;9083;49.156;8.982;2023-06-14T05:54:09;8.33;;;4.37;;
17915;SDS011;9083;49.156;8.982;2023-06-14T05:56:35;8.27;;;4.03;;
17915;SDS011;9083;49.156;8.982;2023-06-14T05:59:02;8.83;;;4.57;;
17915;SDS011;9083;49.156;8.982;2023-06-14T06:01:29;8.00;;;4.33;;
17915;SDS011;9083;49.156;8.982;2023-06-14T06:03:55;6.97;;;4.37;;
17915;SDS011;9083;49.156;8.982;2023-06-14T06:06:21;5.73;;;4.17;;
17915;SDS011;9083;49.156;8.982;2023-06-14T06:08:48;5.17;;;4.67;;
17915;SDS011;9083;49.156;8.982;2023-06-14T06:11:15;4.83;;;4.33;;
17915;SDS011;9083;49.156;8.982;2023-06-14T06:13:41;7.23;;;4.60;;
17915;SDS011;9083;49.156;8.982;2023-06-14T06:16:08;6.37;;;4.50;;
17915;SDS011;9083;49.156;8.982;2023-06-14T06:18:35;15.70;;;4.43;;
17915;SDS011;9083;49.156;8.982;2023-06-14T06:21:01;11.63;;;4.63;;
17915;SDS011;9083;49.156;8.982;2023-06-14T06:23:28;6.67;;;4.47;;
17915;SDS011;9083;49.156;8.982;2023-06-14T06:25:55;5.00;;;4.50;;
17915;SDS011;9083;49.156;8.982;2023-06-14T06:28:21;4.30;;;3.83;;
17915;SDS011;9083;49.156;8.982;2023-06-14T06:30:47;6.90;;;4.40;;
17915;SDS011;9083;49.156;8.982;2023-06-14T06:33:15;6.57;;;4.37;;
17915;SDS011;9083;49.156;8.982;2023-06-14T06:35:41;5.93;;;4.60;;
17915;SDS011;9083;49.156;8.982;2023-06-14T06:38:07;6.73;;;4.87;;
17915;SDS011;9083;49.156;8.982;2023-06-14T06:40:35;11.00;;;4.60;;
17915;SDS011;9083;49.156;8.982;2023-06-14T06:43:01;7.30;;;4.30;;
17915;SDS011;9083;49.156;8.982;2023-06-14T06:45:27;7.23;;;4.37;;
17915;SDS011;9083;49.156;8.982;2023-06-14T06:47:54;5.73;;;4.13;;
17915;SDS011;9083;49.156;8.982;2023-06-14T06:50:22;6.80;;;4.40;;
17915;SDS011;9083;49.156;8.982;2023-06-14T06:52:49;10.63;;;4.60;;
17915;SDS011;9083;49.156;8.982;2023-06-14T06:55:16;14.60;;;4.30;;
17915;SDS011;9083;49.156;8.982;2023-06-14T06:57:43;5.13;;;4.50;;
17915;SDS011;9083;49.156;8.982;2023-06-14T07:00:10;12.40;;;4.80;;
17915;SDS011;9083;49.156;8.982;2023-06-14T07:02:37;6.70;;;4.20;;
17915;SDS011;9083;49.156;8.982;2023-06-14T07:05:04;6.33;;;4.50;;
17915;SDS011;9083;49.156;8.982;2023-06-14T07:07:32;8.10;;;4.57;;
17915;SDS011;9083;49.156;8.982;2023-06-14T07:09:58;5.23;;;4.37;;
17915;SDS011;9083;49.156;8.982;2023-06-14T07:12:25;6.20;;;4.23;;
17915;SDS011;9083;49.156;8.982;2023-06-14T07:14:51;7.20;;;4.57;;
17915;SDS011;9083;49.156;8.982;2023-06-14T07:17:18;6.73;;;4.23;;
17915;SDS011;9083;49.156;8.982;2023-06-14T07:19:44;5.23;;;4.00;;
17915;SDS011;9083;49.156;8.982;2023-06-14T07:22:10;7.73;;;4.33;;
17915;SDS011;9083;49.156;8.982;2023-06-14T07:24:38;8.23;;;4.40;;
17915;SDS011;9083;49.156;8.982;2023-06-14T07:27:05;7.67;;;4.53;;
17915;SDS011;9083;49.156;8.982;2023-06-14T07:29:32;7.03;;;4.50;;
17915;SDS011;9083;49.156;8.982;2023-06-14T07:31:59;8.53;;;4.40;;
17915;SDS011;9083;49.156;8.982;2023-06-14T07:34:25;4.60;;;4.07;;
17915;SDS011;9083;49.156;8.982;2023-06-14T07:36:52;7.70;;;3.97;;
17915;SDS011;9083;49.156;8.982;2023-06-14T07:39:19;8.57;;;3.90;;
17915;SDS011;9083;49.156;8.982;2023-06-14T07:41:47;6.57;;;4.00;;
17915;SDS011;9083;49.156;8.982;2023-06-14T07:44:13;7.17;;;4.00;;
17915;SDS011;9083;49.156;8.982;2023-06-14T07:46:40;10.63;;;3.90;;
17915;SDS011;9083;49.156;8.982;2023-06-14T07:49:07;10.97;;;4.90;;
17915;SDS011;9083;49.156;8.982;2023-06-14T07:51:33;7.23;;;3.93;;
17915;SDS011;9083;49.156;8.982;2023-06-14T07:54:00;7.20;;;4.43;;
17915;SDS011;9083;49.156;8.982;2023-06-14T07:56:27;8.23;;;4.23;;
17915;SDS011;9083;49.156;8.982;2023-06-14T07:58:54;6.40;;;3.73;;
17915;SDS011;9083;49.156;8.982;2023-06-14T08:01:21;10.93;;;3.97;;
17915;SDS011;9083;49.156;8.982;2023-06-14T08:03:49;7.70;;;4.10;;
17915;SDS011;9083;49.156;8.982;2023-06-14T08:06:15;12.43;;;3.80;;
17915;SDS011;9083;49.156;8.982;2023-06-14T08:08:41;4.17;;;3.30;;
17915;SDS011;9083;49.156;8.982;2023-06-14T08:11:08;6.13;;;3.73;;
17915;SDS011;9083;49.156;8.982;2023-06-14T08:13:34;6.07;;;3.90;;
17915;SDS011;9083;49.156;8.982;2023-06-14T08:16:02;5.15;;;3.67;;
17915;SDS011;9083;49.156;8.982;2023-06-14T08:18:30;6.07;;;4.00;;
17915;SDS011;9083;49.156;8.982;2023-06-14T08:20:56;5.80;;;4.10;;
17915;SDS011;9083;49.156;8.982;2023-06-14T08:23:22;4.85;;;3.22;;
17915;SDS011;9083;49.156;8.982;2023-06-14T08:25:49;5.13;;;3.95;;
17915;SDS011;9083;49.156;8.982;2023-06-14T08:28:15;3.92;;;3.50;;
17915;SDS011;9083;49.156;8.982;2023-06-14T08:30:41;6.40;;;3.47;;
17915;SDS011;9083;49.156;8.982;2023-06-14T08:33:09;5.32;;;3.75;;
17915;SDS011;9083;49.156;8.982;2023-06-14T08:35:35;6.07;;;3.75;;
17915;SDS011;9083;49.156;8.982;2023-06-14T08:38:03;5.22;;;3.60;;
17915;SDS011;9083;49.156;8.982;2023-06-14T08:40:30;5.15;;;3.80;;
17915;SDS011;9083;49.156;8.982;2023-06-14T08:42:56;10.80;;;4.28;;
17915;SDS011;9083;49.156;8.982;2023-06-14T08:45:23;4.30;;;3.38;;
17915;SDS011;9083;49.156;8.982;2023-06-14T08:47:50;4.00;;;3.70;;
17915;SDS011;9083;49.156;8.982;2023-06-14T08:50:20;4.38;;;3.60;;
17915;SDS011;9083;49.156;8.982;2023-06-14T08:52:46;5.82;;;3.70;;
17915;SDS011;9083;49.156;8.982;2023-06-14T08:55:15;3.47;;;3.17;;
17915;SDS011;9083;49.156;8.982;2023-06-14T08:57:45;9.50;;;3.88;;
17915;SDS011;9083;49.156;8.982;2023-06-14T09:00:12;3.70;;;3.40;;
17915;SDS011;9083;49.156;8.982;2023-06-14T09:02:39;17.77;;;4.38;;
17915;SDS011;9083;49.156;8.982;2023-06-14T09:05:08;9.27;;;3.85;;
17915;SDS011;9083;49.156;8.982;2023-06-14T09:07:36;4.60;;;3.35;;
17915;SDS011;9083;49.156;8.982;2023-06-14T09:10:07;3.28;;;3.08;;
17915;SDS011;9083;49.156;8.982;2023-06-14T09:12:33;11.02;;;3.85;;
17915;SDS011;9083;49.156;8.982;2023-06-14T09:15:00;6.40;;;3.40;;
17915;SDS011;9083;49.156;8.982;2023-06-14T09:17:31;3.85;;;3.55;;
17915;SDS011;9083;49.156;8.982;2023-06-14T09:19:58;7.30;;;3.63;;
17915;SDS011;9083;49.156;8.982;2023-06-14T09:22:24;5.43;;;3.72;;
17915;SDS011;9083;49.156;8.982;2023-06-14T09:24:51;4.38;;;3.50;;
17915;SDS011;9083;49.156;8.982;2023-06-14T09:27:19;5.68;;;3.78;;
17915;SDS011;9083;49.156;8.982;2023-06-14T09:29:46;5.00;;;3.40;;
17915;SDS011;9083;49.156;8.982;2023-06-14T09:32:12;4.20;;;3.55;;
17915;SDS011;9083;49.156;8.982;2023-06-14T09:34:38;4.68;;;3.70;;
17915;SDS011;9083;49.156;8.982;2023-06-14T09:37:05;5.65;;;4.15;;
17915;SDS011;9083;49.156;8.982;2023-06-14T09:39:31;5.82;;;3.67;;
17915;SDS011;9083;49.156;8.982;2023-06-14T09:41:59;3.88;;;3.17;;
17915;SDS011;9083;49.156;8.982;2023-06-14T09:44:25;5.35;;;3.60;;
17915;SDS011;9083;49.156;8.982;2023-06-14T09:46:53;4.90;;;3.67;;
17915;SDS011;9083;49.156;8.982;2023-06-14T09:49:21;4.38;;;3.53;;
17915;SDS011;9083;49.156;8.982;2023-06-14T09:51:49;4.95;;;3.28;;
17915;SDS011;9083;49.156;8.982;2023-06-14T09:54:16;9.05;;;3.90;;
17915;SDS011;9083;49.156;8.982;2023-06-14T09:56:44;5.97;;;4.05;;
17915;SDS011;9083;49.156;8.982;2023-06-14T09:59:12;6.82;;;3.90;;
17915;SDS011;9083;49.156;8.982;2023-06-14T10:01:40;7.30;;;3.90;;
17915;SDS011;9083;49.156;8.982;2023-06-14T10:04:07;10.23;;;4.18;;
17915;SDS011;9083;49.156;8.982;2023-06-14T10:06:35;4.50;;;3.28;;
17915;SDS011;9083;49.156;8.982;2023-06-14T10:09:02;6.57;;;3.83;;
17915;SDS011;9083;49.156;8.982;2023-06-14T10:11:30;5.03;;;2.95;;
17915;SDS011;9083;49.156;8.982;2023-06-14T10:13:57;3.03;;;2.70;;
17915;SDS011;9083;49.156;8.982;2023-06-14T10:16:27;5.57;;;3.40;;
17915;SDS011;9083;49.156;8.982;2023-06-14T10:18:59;3.30;;;3.00;;
17915;SDS011;9083;49.156;8.982;2023-06-14T10:21:28;4.70;;;3.60;;
17915;SDS011;9083;49.156;8.982;2023-06-14T10:23:59;3.47;;;2.95;;
17915;SDS011;9083;49.156;8.982;2023-06-14T10:26:27;3.33;;;3.00;;
17915;SDS011;9083;49.156;8.982;2023-06-14T10:28:57;4.75;;;3.22;;
17915;SDS011;9083;49.156;8.982;2023-06-14T10:31:26;6.68;;;3.00;;
17915;SDS011;9083;49.156;8.982;2023-06-14T10:34:05;4.35;;;2.90;;
17915;SDS011;9083;49.156;8.982;2023-06-14T10:36:31;3.65;;;2.83;;
17915;SDS011;9083;49.156;8.982;2023-06-14T10:39:00;5.10;;;3.28;;
17915;SDS011;9083;49.156;8.982;2023-06-14T10:41:26;3.58;;;3.00;;
17915;SDS011;9083;49.156;8.982;2023-06-14T10:44:02;5.15;;;3.30;;
17915;SDS011;9083;49.156;8.982;2023-06-14T10:46:38;3.65;;;3.35;;
17915;SDS011;9083;49.156;8.982;2023-06-14T10:49:04;4.63;;;3.33;;
17915;SDS011;9083;49.156;8.982;2023-06-14T10:51:37;9.23;;;3.47;;
17915;SDS011;9083;49.156;8.982;2023-06-14T10:54:11;5.68;;;2.90;;
17915;SDS011;9083;49.156;8.982;2023-06-14T10:56:37;6.43;;;2.92;;
17915;SDS011;9083;49.156;8.982;2023-06-14T10:59:03;3.20;;;2.83;;
17915;SDS011;9083;49.156;8.982;2023-06-14T11:01:35;3.28;;;3.05;;
17915;SDS011;9083;49.156;8.982;2023-06-14T11:04:09;6.68;;;3.53;;
17915;SDS011;9083;49.156;8.982;2023-06-14T11:06:46;3.83;;;3.40;;
17915;SDS011;9083;49.156;8.982;2023-06-14T11:09:22;3.53;;;3.33;;
17915;SDS011;9083;49.156;8.982;2023-06-14T11:11:49;4.88;;;3.28;;
17915;SDS011;9083;49.156;8.982;2023-06-14T11:14:17;3.28;;;3.08;;
17915;SDS011;9083;49.156;8.982;2023-06-14T11:16:47;4.35;;;2.75;;
17915;SDS011;9083;49.156;8.982;2023-06-14T11:19:14;3.05;;;2.80;;
17915;SDS011;9083;49.156;8.982;2023-06-14T11:21:42;3.42;;;3.13;;
17915;SDS011;9083;49.156;8.982;2023-06-14T11:24:09;3.67;;;2.85;;
17915;SDS011;9083;49.156;8.982;2023-06-14T11:26:37;3.70;;;3.40;;
17915;SDS011;9083;49.156;8.982;2023-06-14T11:29:03;3.75;;;3.05;;
17915;SDS011;9083;49.156;8.982;2023-06-14T11:31:29;7.63;;;3.03;;
17915;SDS011;9083;49.156;8.982;2023-06-14T11:33:56;3.72;;;3.33;;
17915;SDS011;9083;49.156;8.982;2023-06-14T11:36:25;2.75;;;2.63;;
17915;SDS011;9083;49.156;8.982;2023-06-14T11:38:57;4.10;;;3.35;;
17915;SDS011;9083;49.156;8.982;2023-06-14T11:41:24;6.88;;;3.33;;
17915;SDS011;9083;49.156;8.982;2023-06-14T11:43:52;3.10;;;2.90;;
17915;SDS011;9083;49.156;8.982;2023-06-14T11:46:18;4.47;;;3.40;;
17915;SDS011;9083;49.156;8.982;2023-06-14T11:48:49;3.67;;;2.72;;
17915;SDS011;9083;49.156;8.982;2023-06-14T11:51:15;4.70;;;2.97;;
17915;SDS011;9083;49.156;8.982;2023-06-14T11:53:43;3.25;;;3.03;;
17915;SDS011;9083;49.156;8.982;2023-06-14T11:56:09;18.65;;;3.60;;
17915;SDS011;9083;49.156;8.982;2023-06-14T11:58:37;5.65;;;3.65;;
17915;SDS011;9083;49.156;8.982;2023-06-14T12:01:03;7.00;;;3.45;;
17915;SDS011;9083;49.156;8.982;2023-06-14T12:03:30;3.45;;;3.15;;
17915;SDS011;9083;49.156;8.982;2023-06-14T12:06:03;3.22;;;2.90;;
17915;SDS011;9083;49.156;8.982;2023-06-14T12:08:33;5.35;;;2.83;;
17915;SDS011;9083;49.156;8.982;2023-06-14T12:11:05;5.57;;;3.17;;
17915;SDS011;9083;49.156;8.982;2023-06-14T12:13:32;3.20;;;3.00;;
17915;SDS011;9083;49.156;8.982;2023-06-14T12:15:59;10.07;;;3.70;;
17915;SDS011;9083;49.156;8.982;2023-06-14T12:18:32;3.30;;;3.00;;
17915;SDS011;9083;49.156;8.982;2023-06-14T12:20:59;2.67;;;2.47;;
17915;SDS011;9083;49.156;8.982;2023-06-14T12:23:27;3.50;;;3.20;;
17915;SDS011;9083;49.156;8.982;2023-06-14T12:26:05;3.40;;;3.20;;
17915;SDS011;9083;49.156;8.982;2023-06-14T12:28:31;4.70;;;3.42;;
17915;SDS011;9083;49.156;8.982;2023-06-14T12:30:58;3.60;;;3.30;;
17915;SDS011;9083;49.156;8.982;2023-06-14T12:33:24;3.55;;;3.10;;
17915;SDS011;9083;49.156;8.982;2023-06-14T12:35:53;5.07;;;2.80;;
17915;SDS011;9083;49.156;8.982;2023-06-14T12:38:20;4.35;;;2.90;;
17915;SDS011;9083;49.156;8.982;2023-06-14T12:40:47;5.60;;;2.95;;
17915;SDS011;9083;49.156;8.982;2023-06-14T12:43:14;4.90;;;2.92;;
17915;SDS011;9083;49.156;8.982;2023-06-14T12:45:41;4.38;;;2.53;;
17915;SDS011;9083;49.156;8.982;2023-06-14T12:48:07;3.22;;;2.92;;
17915;SDS011;9083;49.156;8.982;2023-06-14T12:50:34;5.00;;;3.75;;
17915;SDS011;9083;49.156;8.982;2023-06-14T12:53:00;3.17;;;2.97;;
17915;SDS011;9083;49.156;8.982;2023-06-14T12:55:26;6.45;;;3.10;;
17915;SDS011;9083;49.156;8.982;2023-06-14T12:57:53;3.15;;;2.95;;
17915;SDS011;9083;49.156;8.982;2023-06-14T13:00:20;3.33;;;2.58;;
17915;SDS011;9083;49.156;8.982;2023-06-14T13:02:47;5.85;;;2.60;;
17915;SDS011;9083;49.156;8.982;2023-06-14T13:05:14;3.20;;;2.70;;
17915;SDS011;9083;49.156;8.982;2023-06-14T13:07:40;5.85;;;3.10;;
17915;SDS011;9083;49.156;8.982;2023-06-14T13:10:07;7.47;;;3.20;;
17915;SDS011;9083;49.156;8.982;2023-06-14T13:12:33;5.40;;;3.10;;
17915;SDS011;9083;49.156;8.982;2023-06-14T13:14:59;3.88;;;2.78;;
17915;SDS011;9083;49.156;8.982;2023-06-14T13:17:27;5.47;;;3.15;;
17915;SDS011;9083;49.156;8.982;2023-06-14T13:19:53;4.20;;;2.90;;
17915;SDS011;9083;49.156;8.982;2023-06-14T13:22:19;8.35;;;3.53;;
17915;SDS011;9083;49.156;8.982;2023-06-14T13:24:46;5.03;;;3.00;;
17915;SDS011;9083;49.156;8.982;2023-06-14T13:27:12;3.70;;;2.88;;
17915;SDS011;9083;49.156;8.982;2023-06-14T13:29:39;3.00;;;2.70;;
17915;SDS011;9083;49.156;8.982;2023-06-14T13:32:06;5.55;;;3.65;;
17915;SDS011;9083;49.156;8.982;2023-06-14T13:34:33;7.00;;;2.75;;
17915;SDS011;9083;49.156;8.982;2023-06-14T13:37:00;8.80;;;3.65;;
17915;SDS011;9083;49.156;8.982;2023-06-14T13:39:26;3.50;;;2.88;;
17915;SDS011;9083;49.156;8.982;2023-06-14T13:41:52;8.75;;;3.10;;
17915;SDS011;9083;49.156;8.982;2023-06-14T13:44:18;6.15;;;3.13;;
17915;SDS011;9083;49.156;8.982;2023-06-14T13:46:46;11.27;;;3.88;;
17915;SDS011;9083;49.156;8.982;2023-06-14T13:49:12;4.35;;;3.30;;
17915;SDS011;9083;49.156;8.982;2023-06-14T13:51:40;12.27;;;3.78;;
17915;SDS011;9083;49.156;8.982;2023-06-14T13:54:06;14.80;;;3.40;;
17915;SDS011;9083;49.156;8.982;2023-06-14T13:56:33;16.80;;;4.22;;
17915;SDS011;9083;49.156;8.982;2023-06-14T13:58:59;9.38;;;3.80;;
17915;SDS011;9083;49.156;8.982;2023-06-14T14:01:26;5.40;;;3.00;;
17915;SDS011;9083;49.156;8.982;2023-06-14T14:03:53;6.43;;;3.45;;
17915;SDS011;9083;49.156;8.982;2023-06-14T14:06:20;3.22;;;3.00;;
17915;SDS011;9083;49.156;8.982;2023-06-14T14:08:47;4.70;;;3.10;;
17915;SDS011;9083;49.156;8.982;2023-06-14T14:11:14;3.90;;;3.22;;
17915;SDS011;9083;49.156;8.982;2023-06-14T14:13:41;4.10;;;3.22;;
17915;SDS011;9083;49.156;8.982;2023-06-14T14:16:07;4.90;;;3.17;;
17915;SDS011;9083;49.156;8.982;2023-06-14T14:18:35;3.50;;;3.20;;
17915;SDS011;9083;49.156;8.982;2023-06-14T14:21:02;3.75;;;3.22;;
17915;SDS011;9083;49.156;8.982;2023-06-14T14:23:28;3.40;;;2.92;;
17915;SDS011;9083;49.156;8.982;2023-06-14T14:25:56;5.35;;;3.30;;
17915;SDS011;9083;49.156;8.982;2023-06-14T14:28:22;5.38;;;3.20;;
17915;SDS011;9083;49.156;8.982;2023-06-14T14:30:49;5.82;;;3.20;;
17915;SDS011;9083;49.156;8.982;2023-06-14T14:33:15;9.30;;;3.30;;
17915;SDS011;9083;49.156;8.982;2023-06-14T14:35:42;4.82;;;3.22;;
17915;SDS011;9083;49.156;8.982;2023-06-14T14:38:09;3.55;;;3.30;;
17915;SDS011;9083;49.156;8.982;2023-06-14T14:40:35;10.10;;;3.35;;
17915;SDS011;9083;49.156;8.982;2023-06-14T14:43:03;6.88;;;3.28;;
17915;SDS011;9083;49.156;8.982;2023-06-14T14:45:30;9.57;;;3.45;;
17915;SDS011;9083;49.156;8.982;2023-06-14T14:47:56;13.07;;;3.35;;
17915;SDS011;9083;49.156;8.982;2023-06-14T14:50:22;9.05;;;3.17;;
17915;SDS011;9083;49.156;8.982;2023-06-14T14:52:49;9.90;;;3.78;;
17915;SDS011;9083;49.156;8.982;2023-06-14T14:55:15;3.50;;;3.15;;
17915;SDS011;9083;49.156;8.982;2023-06-14T14:57:41;10.60;;;3.22;;
17915;SDS011;9083;49.156;8.982;2023-06-14T15:00:09;3.25;;;3.03;;